sensor_id;sensor_type;location;lat;lon;timestamp;P1;durP1;ratioP1;P2;durP2;ratioP2
42754;SDS011;28407;51.830;5.684;2023-02-04T00:01:52;5.65;;;2.88;;
42754;SDS011;28407;51.830;5.684;2023-02-04T00:03:53;6.55;;;2.63;;
42754;SDS011;28407;51.830;5.684;2023-02-04T00:05:54;4.32;;;2.70;;
42754;SDS011;28407;51.830;5.684;2023-02-04T00:07:54;6.22;;;2.78;;
42754;SDS011;28407;51.830;5.684;2023-02-04T00:09:55;10.75;;;4.35;;
42754;SDS011;28407;51.830;5.684;2023-02-04T00:11:55;11.98;;;3.97;;
42754;SDS011;28407;51.830;5.684;2023-02-04T00:13:56;7.72;;;2.63;;
42754;SDS011;28407;51.830;5.684;2023-02-04T00:15:57;8.52;;;2.50;;
42754;SDS011;28407;51.830;5.684;2023-02-04T00:17:57;4.18;;;2.72;;
42754;SDS011;28407;51.830;5.684;2023-02-04T00:19:58;5.50;;;2.60;;
42754;SDS011;28407;51.830;5.684;2023-02-04T00:21:59;7.18;;;3.22;;
42754;SDS011;28407;51.830;5.684;2023-02-04T00:23:59;7.78;;;4.55;;
42754;SDS011;28407;51.830;5.684;2023-02-04T00:26:00;5.57;;;3.38;;
42754;SDS011;28407;51.830;5.684;2023-02-04T00:28:01;5.07;;;3.35;;
42754;SDS011;28407;51.830;5.684;2023-02-04T00:30:04;5.20;;;2.95;;
42754;SDS011;28407;51.830;5.684;2023-02-04T00:32:05;6.07;;;2.63;;
42754;SDS011;28407;51.830;5.684;2023-02-04T00:34:06;8.88;;;3.55;;
42754;SDS011;28407;51.830;5.684;2023-02-04T00:36:07;5.50;;;3.00;;
42754;SDS011;28407;51.830;5.684;2023-02-04T00:38:08;4.65;;;2.80;;
42754;SDS011;28407;51.830;5.684;2023-02-04T00:40:09;5.75;;;3.78;;
42754;SDS011;28407;51.830;5.684;2023-02-04T00:42:12;8.32;;;3.55;;
42754;SDS011;28407;51.830;5.684;2023-02-04T00:44:12;7.60;;;2.85;;
42754;SDS011;28407;51.830;5.684;2023-02-04T00:46:13;6.32;;;3.38;;
42754;SDS011;28407;51.830;5.684;2023-02-04T00:48:14;8.88;;;3.45;;
42754;SDS011;28407;51.830;5.684;2023-02-04T00:50:15;7.10;;;3.75;;
42754;SDS011;28407;51.830;5.684;2023-02-04T00:52:17;7.22;;;3.15;;
42754;SDS011;28407;51.830;5.684;2023-02-04T00:54:17;9.25;;;3.25;;
42754;SDS011;28407;51.830;5.684;2023-02-04T00:58:20;5.03;;;2.85;;
42754;SDS011;28407;51.830;5.684;2023-02-04T01:00:21;18.10;;;3.63;;
42754;SDS011;28407;51.830;5.684;2023-02-04T01:02:22;7.43;;;3.08;;
42754;SDS011;28407;51.830;5.684;2023-02-04T01:04:22;7.28;;;3.30;;
42754;SDS011;28407;51.830;5.684;2023-02-04T01:08:25;8.57;;;4.18;;
42754;SDS011;28407;51.830;5.684;2023-02-04T01:10:26;9.07;;;3.00;;
42754;SDS011;28407;51.830;5.684;2023-02-04T01:12:27;8.50;;;3.60;;
42754;SDS011;28407;51.830;5.684;2023-02-04T01:14:28;15.00;;;4.55;;
42754;SDS011;28407;51.830;5.684;2023-02-04T01:16:28;6.63;;;3.67;;
42754;SDS011;28407;51.830;5.684;2023-02-04T01:18:29;6.13;;;3.90;;
42754;SDS011;28407;51.830;5.684;2023-02-04T01:20:30;6.07;;;3.70;;
42754;SDS011;28407;51.830;5.684;2023-02-04T01:22:31;7.35;;;2.85;;
42754;SDS011;28407;51.830;5.684;2023-02-04T01:24:32;7.43;;;3.78;;
42754;SDS011;28407;51.830;5.684;2023-02-04T01:26:51;3.97;;;2.85;;
42754;SDS011;28407;51.830;5.684;2023-02-04T01:28:51;5.57;;;3.22;;
42754;SDS011;28407;51.830;5.684;2023-02-04T01:30:52;4.60;;;3.25;;
42754;SDS011;28407;51.830;5.684;2023-02-04T01:34:55;5.38;;;3.22;;
42754;SDS011;28407;51.830;5.684;2023-02-04T01:36:55;8.20;;;2.95;;
42754;SDS011;28407;51.830;5.684;2023-02-04T01:38:56;7.25;;;4.10;;
42754;SDS011;28407;51.830;5.684;2023-02-04T01:40:57;8.20;;;3.20;;
42754;SDS011;28407;51.830;5.684;2023-02-04T01:42:58;8.43;;;3.25;;
42754;SDS011;28407;51.830;5.684;2023-02-04T01:44:59;6.40;;;3.30;;
42754;SDS011;28407;51.830;5.684;2023-02-04T01:46:59;6.57;;;3.65;;
42754;SDS011;28407;51.830;5.684;2023-02-04T01:49:00;6.70;;;3.55;;
42754;SDS011;28407;51.830;5.684;2023-02-04T01:51:05;6.47;;;3.50;;
42754;SDS011;28407;51.830;5.684;2023-02-04T01:53:10;5.68;;;3.15;;
42754;SDS011;28407;51.830;5.684;2023-02-04T01:55:14;4.88;;;3.70;;
42754;SDS011;28407;51.830;5.684;2023-02-04T01:57:20;8.48;;;3.28;;
42754;SDS011;28407;51.830;5.684;2023-02-04T01:59:21;7.25;;;2.80;;
42754;SDS011;28407;51.830;5.684;2023-02-04T02:03:45;5.78;;;3.33;;
42754;SDS011;28407;51.830;5.684;2023-02-04T02:05:47;4.32;;;2.88;;
42754;SDS011;28407;51.830;5.684;2023-02-04T02:07:50;6.55;;;3.58;;
42754;SDS011;28407;51.830;5.684;2023-02-04T02:09:54;6.78;;;3.08;;
42754;SDS011;28407;51.830;5.684;2023-02-04T02:11:54;11.93;;;3.03;;
42754;SDS011;28407;51.830;5.684;2023-02-04T02:13:55;6.65;;;3.08;;
42754;SDS011;28407;51.830;5.684;2023-02-04T02:15:56;6.95;;;4.13;;
42754;SDS011;28407;51.830;5.684;2023-02-04T02:17:57;9.27;;;3.15;;
42754;SDS011;28407;51.830;5.684;2023-02-04T02:19:58;5.30;;;2.72;;
42754;SDS011;28407;51.830;5.684;2023-02-04T02:22:03;5.82;;;3.97;;
42754;SDS011;28407;51.830;5.684;2023-02-04T02:24:22;6.88;;;2.88;;
42754;SDS011;28407;51.830;5.684;2023-02-04T02:26:23;7.82;;;3.10;;
42754;SDS011;28407;51.830;5.684;2023-02-04T02:28:25;10.02;;;3.42;;
42754;SDS011;28407;51.830;5.684;2023-02-04T02:30:26;9.88;;;4.03;;
42754;SDS011;28407;51.830;5.684;2023-02-04T02:32:28;7.75;;;3.53;;
42754;SDS011;28407;51.830;5.684;2023-02-04T02:34:28;8.95;;;4.05;;
42754;SDS011;28407;51.830;5.684;2023-02-04T02:36:29;8.75;;;3.33;;
42754;SDS011;28407;51.830;5.684;2023-02-04T02:38:30;10.30;;;3.78;;
42754;SDS011;28407;51.830;5.684;2023-02-04T02:40:31;9.68;;;4.40;;
42754;SDS011;28407;51.830;5.684;2023-02-04T02:42:34;7.68;;;4.07;;
42754;SDS011;28407;51.830;5.684;2023-02-04T02:44:35;11.23;;;3.50;;
42754;SDS011;28407;51.830;5.684;2023-02-04T02:46:36;6.45;;;3.42;;
42754;SDS011;28407;51.830;5.684;2023-02-04T02:48:37;5.95;;;3.10;;
42754;SDS011;28407;51.830;5.684;2023-02-04T02:50:38;6.60;;;3.40;;
42754;SDS011;28407;51.830;5.684;2023-02-04T02:52:40;10.90;;;3.45;;
42754;SDS011;28407;51.830;5.684;2023-02-04T02:54:41;8.45;;;3.20;;
42754;SDS011;28407;51.830;5.684;2023-02-04T02:56:45;7.20;;;3.42;;
42754;SDS011;28407;51.830;5.684;2023-02-04T02:58:46;4.88;;;3.13;;
42754;SDS011;28407;51.830;5.684;2023-02-04T03:00:47;8.13;;;4.10;;
42754;SDS011;28407;51.830;5.684;2023-02-04T03:02:52;8.57;;;3.92;;
42754;SDS011;28407;51.830;5.684;2023-02-04T03:04:59;10.23;;;3.50;;
42754;SDS011;28407;51.830;5.684;2023-02-04T03:07:03;10.00;;;3.30;;
42754;SDS011;28407;51.830;5.684;2023-02-04T03:09:03;10.15;;;3.50;;
42754;SDS011;28407;51.830;5.684;2023-02-04T03:11:04;7.43;;;3.25;;
42754;SDS011;28407;51.830;5.684;2023-02-04T03:13:05;11.48;;;4.18;;
42754;SDS011;28407;51.830;5.684;2023-02-04T03:15:06;10.35;;;4.65;;
42754;SDS011;28407;51.830;5.684;2023-02-04T03:17:08;9.93;;;4.65;;
42754;SDS011;28407;51.830;5.684;2023-02-04T03:21:10;6.85;;;3.15;;
42754;SDS011;28407;51.830;5.684;2023-02-04T03:23:11;10.65;;;3.72;;
42754;SDS011;28407;51.830;5.684;2023-02-04T03:25:14;10.70;;;4.22;;
42754;SDS011;28407;51.830;5.684;2023-02-04T03:27:15;9.35;;;3.08;;
42754;SDS011;28407;51.830;5.684;2023-02-04T03:29:16;8.52;;;3.50;;
42754;SDS011;28407;51.830;5.684;2023-02-04T03:31:16;8.05;;;3.40;;
42754;SDS011;28407;51.830;5.684;2023-02-04T03:33:17;12.70;;;3.90;;
42754;SDS011;28407;51.830;5.684;2023-02-04T03:35:18;7.63;;;4.05;;
42754;SDS011;28407;51.830;5.684;2023-02-04T03:37:19;9.97;;;3.70;;
42754;SDS011;28407;51.830;5.684;2023-02-04T03:39:20;8.27;;;4.90;;
42754;SDS011;28407;51.830;5.684;2023-02-04T03:41:20;6.20;;;3.42;;
42754;SDS011;28407;51.830;5.684;2023-02-04T03:43:21;11.50;;;3.60;;
42754;SDS011;28407;51.830;5.684;2023-02-04T03:45:22;8.80;;;3.88;;
42754;SDS011;28407;51.830;5.684;2023-02-04T03:47:22;9.05;;;4.47;;
42754;SDS011;28407;51.830;5.684;2023-02-04T03:49:23;8.90;;;4.25;;
42754;SDS011;28407;51.830;5.684;2023-02-04T03:51:25;13.38;;;4.97;;
42754;SDS011;28407;51.830;5.684;2023-02-04T03:53:26;7.45;;;3.63;;
42754;SDS011;28407;51.830;5.684;2023-02-04T03:55:26;9.80;;;5.80;;
42754;SDS011;28407;51.830;5.684;2023-02-04T03:57:27;9.00;;;4.93;;
42754;SDS011;28407;51.830;5.684;2023-02-04T03:59:28;18.58;;;6.38;;
42754;SDS011;28407;51.830;5.684;2023-02-04T04:01:28;9.02;;;4.25;;
42754;SDS011;28407;51.830;5.684;2023-02-04T04:03:29;9.27;;;4.50;;
42754;SDS011;28407;51.830;5.684;2023-02-04T04:05:30;8.45;;;4.40;;
42754;SDS011;28407;51.830;5.684;2023-02-04T04:07:31;14.90;;;6.80;;
42754;SDS011;28407;51.830;5.684;2023-02-04T04:09:32;9.50;;;4.82;;
42754;SDS011;28407;51.830;5.684;2023-02-04T04:11:33;11.88;;;4.53;;
42754;SDS011;28407;51.830;5.684;2023-02-04T04:13:33;10.15;;;5.45;;
42754;SDS011;28407;51.830;5.684;2023-02-04T04:15:34;8.32;;;4.47;;
42754;SDS011;28407;51.830;5.684;2023-02-04T04:17:35;11.07;;;4.53;;
42754;SDS011;28407;51.830;5.684;2023-02-04T04:19:35;12.85;;;4.88;;
42754;SDS011;28407;51.830;5.684;2023-02-04T04:21:36;10.80;;;4.57;;
42754;SDS011;28407;51.830;5.684;2023-02-04T04:23:37;7.32;;;4.32;;
42754;SDS011;28407;51.830;5.684;2023-02-04T04:25:37;10.50;;;4.45;;
42754;SDS011;28407;51.830;5.684;2023-02-04T04:27:38;10.55;;;6.10;;
42754;SDS011;28407;51.830;5.684;2023-02-04T04:29:39;9.20;;;4.93;;
42754;SDS011;28407;51.830;5.684;2023-02-04T04:31:39;10.35;;;4.50;;
42754;SDS011;28407;51.830;5.684;2023-02-04T04:33:40;6.45;;;4.75;;
42754;SDS011;28407;51.830;5.684;2023-02-04T04:35:41;10.87;;;4.30;;
42754;SDS011;28407;51.830;5.684;2023-02-04T04:37:42;9.18;;;4.95;;
42754;SDS011;28407;51.830;5.684;2023-02-04T04:39:43;6.97;;;4.13;;
42754;SDS011;28407;51.830;5.684;2023-02-04T04:41:43;10.00;;;4.25;;
42754;SDS011;28407;51.830;5.684;2023-02-04T04:43:44;11.35;;;5.75;;
42754;SDS011;28407;51.830;5.684;2023-02-04T04:45:45;11.32;;;7.05;;
42754;SDS011;28407;51.830;5.684;2023-02-04T04:47:46;8.93;;;4.63;;
42754;SDS011;28407;51.830;5.684;2023-02-04T04:49:46;6.53;;;3.80;;
42754;SDS011;28407;51.830;5.684;2023-02-04T04:51:47;9.60;;;4.47;;
42754;SDS011;28407;51.830;5.684;2023-02-04T04:53:48;9.63;;;5.15;;
42754;SDS011;28407;51.830;5.684;2023-02-04T04:55:48;9.65;;;4.32;;
42754;SDS011;28407;51.830;5.684;2023-02-04T04:57:49;7.78;;;4.15;;
42754;SDS011;28407;51.830;5.684;2023-02-04T04:59:50;6.88;;;3.67;;
42754;SDS011;28407;51.830;5.684;2023-02-04T05:01:51;8.32;;;4.30;;
42754;SDS011;28407;51.830;5.684;2023-02-04T05:03:51;6.03;;;3.75;;
42754;SDS011;28407;51.830;5.684;2023-02-04T05:05:52;7.00;;;3.60;;
42754;SDS011;28407;51.830;5.684;2023-02-04T05:07:53;9.38;;;5.55;;
42754;SDS011;28407;51.830;5.684;2023-02-04T05:09:53;9.43;;;4.82;;
42754;SDS011;28407;51.830;5.684;2023-02-04T05:11:54;8.95;;;4.60;;
42754;SDS011;28407;51.830;5.684;2023-02-04T05:13:55;7.40;;;4.70;;
42754;SDS011;28407;51.830;5.684;2023-02-04T05:15:55;11.18;;;4.45;;
42754;SDS011;28407;51.830;5.684;2023-02-04T05:17:56;9.43;;;4.43;;
42754;SDS011;28407;51.830;5.684;2023-02-04T05:19:57;7.15;;;4.45;;
42754;SDS011;28407;51.830;5.684;2023-02-04T05:21:58;8.77;;;4.95;;
42754;SDS011;28407;51.830;5.684;2023-02-04T05:24:00;6.90;;;3.80;;
42754;SDS011;28407;51.830;5.684;2023-02-04T05:26:01;11.88;;;4.57;;
42754;SDS011;28407;51.830;5.684;2023-02-04T05:28:02;9.65;;;4.30;;
42754;SDS011;28407;51.830;5.684;2023-02-04T05:30:03;9.65;;;5.13;;
42754;SDS011;28407;51.830;5.684;2023-02-04T05:32:04;6.45;;;4.70;;
42754;SDS011;28407;51.830;5.684;2023-02-04T05:34:04;10.00;;;4.97;;
42754;SDS011;28407;51.830;5.684;2023-02-04T05:36:05;7.13;;;4.40;;
42754;SDS011;28407;51.830;5.684;2023-02-04T05:38:06;7.63;;;3.70;;
42754;SDS011;28407;51.830;5.684;2023-02-04T05:40:07;8.43;;;4.82;;
42754;SDS011;28407;51.830;5.684;2023-02-04T05:42:08;5.85;;;3.90;;
42754;SDS011;28407;51.830;5.684;2023-02-04T05:44:08;8.32;;;4.78;;
42754;SDS011;28407;51.830;5.684;2023-02-04T05:46:09;10.32;;;4.32;;
42754;SDS011;28407;51.830;5.684;2023-02-04T05:48:10;7.28;;;4.13;;
42754;SDS011;28407;51.830;5.684;2023-02-04T05:50:10;8.00;;;4.55;;
42754;SDS011;28407;51.830;5.684;2023-02-04T05:52:11;7.63;;;4.90;;
42754;SDS011;28407;51.830;5.684;2023-02-04T05:54:12;10.20;;;5.00;;
42754;SDS011;28407;51.830;5.684;2023-02-04T05:56:18;8.65;;;4.38;;
42754;SDS011;28407;51.830;5.684;2023-02-04T05:58:18;11.27;;;5.75;;
42754;SDS011;28407;51.830;5.684;2023-02-04T06:00:19;8.85;;;4.32;;
42754;SDS011;28407;51.830;5.684;2023-02-04T06:02:20;10.25;;;5.40;;
42754;SDS011;28407;51.830;5.684;2023-02-04T06:04:21;8.27;;;4.38;;
42754;SDS011;28407;51.830;5.684;2023-02-04T06:06:21;14.18;;;5.07;;
42754;SDS011;28407;51.830;5.684;2023-02-04T06:08:22;7.72;;;4.88;;
42754;SDS011;28407;51.830;5.684;2023-02-04T06:10:23;9.13;;;4.97;;
42754;SDS011;28407;51.830;5.684;2023-02-04T06:12:24;10.07;;;4.32;;
42754;SDS011;28407;51.830;5.684;2023-02-04T06:14:25;11.07;;;4.72;;
42754;SDS011;28407;51.830;5.684;2023-02-04T06:16:25;7.22;;;4.90;;
42754;SDS011;28407;51.830;5.684;2023-02-04T06:18:26;8.52;;;5.20;;
42754;SDS011;28407;51.830;5.684;2023-02-04T06:20:27;6.45;;;4.45;;
42754;SDS011;28407;51.830;5.684;2023-02-04T06:22:27;9.10;;;4.28;;
42754;SDS011;28407;51.830;5.684;2023-02-04T06:24:28;8.90;;;5.18;;
42754;SDS011;28407;51.830;5.684;2023-02-04T06:26:29;6.07;;;5.03;;
42754;SDS011;28407;51.830;5.684;2023-02-04T06:28:30;6.30;;;4.30;;
42754;SDS011;28407;51.830;5.684;2023-02-04T06:30:30;9.60;;;4.75;;
42754;SDS011;28407;51.830;5.684;2023-02-04T06:32:31;7.50;;;4.57;;
42754;SDS011;28407;51.830;5.684;2023-02-04T06:34:32;5.43;;;4.43;;
42754;SDS011;28407;51.830;5.684;2023-02-04T06:36:32;8.10;;;4.75;;
42754;SDS011;28407;51.830;5.684;2023-02-04T06:38:33;7.55;;;4.22;;
42754;SDS011;28407;51.830;5.684;2023-02-04T06:40:34;11.13;;;5.05;;
42754;SDS011;28407;51.830;5.684;2023-02-04T06:42:34;11.32;;;4.00;;
42754;SDS011;28407;51.830;5.684;2023-02-04T06:44:35;10.05;;;7.35;;
42754;SDS011;28407;51.830;5.684;2023-02-04T06:46:36;10.75;;;4.50;;
42754;SDS011;28407;51.830;5.684;2023-02-04T06:48:36;9.55;;;5.68;;
42754;SDS011;28407;51.830;5.684;2023-02-04T06:50:37;10.18;;;5.03;;
42754;SDS011;28407;51.830;5.684;2023-02-04T06:52:38;11.90;;;5.82;;
42754;SDS011;28407;51.830;5.684;2023-02-04T06:54:38;13.60;;;6.13;;
42754;SDS011;28407;51.830;5.684;2023-02-04T06:56:39;10.45;;;5.05;;
42754;SDS011;28407;51.830;5.684;2023-02-04T06:58:40;12.73;;;5.38;;
42754;SDS011;28407;51.830;5.684;2023-02-04T07:00:41;10.02;;;5.30;;
42754;SDS011;28407;51.830;5.684;2023-02-04T07:02:41;15.48;;;6.85;;
42754;SDS011;28407;51.830;5.684;2023-02-04T07:04:44;12.50;;;5.15;;
42754;SDS011;28407;51.830;5.684;2023-02-04T07:06:44;10.10;;;4.38;;
42754;SDS011;28407;51.830;5.684;2023-02-04T07:08:45;8.95;;;4.78;;
42754;SDS011;28407;51.830;5.684;2023-02-04T07:10:46;11.70;;;5.05;;
42754;SDS011;28407;51.830;5.684;2023-02-04T07:12:47;7.35;;;4.60;;
42754;SDS011;28407;51.830;5.684;2023-02-04T07:14:48;10.30;;;5.72;;
42754;SDS011;28407;51.830;5.684;2023-02-04T07:16:48;8.65;;;5.50;;
42754;SDS011;28407;51.830;5.684;2023-02-04T07:18:49;9.77;;;6.32;;
42754;SDS011;28407;51.830;5.684;2023-02-04T07:20:50;10.88;;;5.60;;
42754;SDS011;28407;51.830;5.684;2023-02-04T07:22:50;10.07;;;5.80;;
42754;SDS011;28407;51.830;5.684;2023-02-04T07:24:51;11.57;;;5.68;;
42754;SDS011;28407;51.830;5.684;2023-02-04T07:26:52;9.70;;;5.57;;
42754;SDS011;28407;51.830;5.684;2023-02-04T07:28:52;9.95;;;5.18;;
42754;SDS011;28407;51.830;5.684;2023-02-04T07:30:53;9.38;;;5.40;;
42754;SDS011;28407;51.830;5.684;2023-02-04T07:32:54;11.30;;;5.13;;
42754;SDS011;28407;51.830;5.684;2023-02-04T07:34:54;15.10;;;6.68;;
42754;SDS011;28407;51.830;5.684;2023-02-04T07:36:55;6.28;;;4.40;;
42754;SDS011;28407;51.830;5.684;2023-02-04T07:38:56;12.25;;;5.40;;
42754;SDS011;28407;51.830;5.684;2023-02-04T07:40:56;8.32;;;5.28;;
42754;SDS011;28407;51.830;5.684;2023-02-04T07:42:57;8.38;;;5.38;;
42754;SDS011;28407;51.830;5.684;2023-02-04T07:45:01;10.00;;;4.80;;
42754;SDS011;28407;51.830;5.684;2023-02-04T07:47:02;15.07;;;7.45;;
42754;SDS011;28407;51.830;5.684;2023-02-04T07:49:02;7.93;;;5.00;;
42754;SDS011;28407;51.830;5.684;2023-02-04T07:51:03;7.78;;;4.57;;
42754;SDS011;28407;51.830;5.684;2023-02-04T07:53:04;10.77;;;5.60;;
42754;SDS011;28407;51.830;5.684;2023-02-04T07:55:05;12.93;;;7.00;;
42754;SDS011;28407;51.830;5.684;2023-02-04T07:57:06;6.93;;;5.10;;
42754;SDS011;28407;51.830;5.684;2023-02-04T07:59:07;10.18;;;5.43;;
42754;SDS011;28407;51.830;5.684;2023-02-04T08:01:07;9.95;;;5.70;;
42754;SDS011;28407;51.830;5.684;2023-02-04T08:03:08;17.75;;;6.05;;
42754;SDS011;28407;51.830;5.684;2023-02-04T08:05:09;7.13;;;5.07;;
42754;SDS011;28407;51.830;5.684;2023-02-04T08:07:10;12.07;;;6.00;;
42754;SDS011;28407;51.830;5.684;2023-02-04T08:09:10;8.77;;;5.22;;
42754;SDS011;28407;51.830;5.684;2023-02-04T08:11:11;10.85;;;6.20;;
42754;SDS011;28407;51.830;5.684;2023-02-04T08:13:12;9.55;;;5.60;;
42754;SDS011;28407;51.830;5.684;2023-02-04T08:15:12;12.60;;;6.65;;
42754;SDS011;28407;51.830;5.684;2023-02-04T08:17:13;7.75;;;5.03;;
42754;SDS011;28407;51.830;5.684;2023-02-04T08:19:14;8.82;;;5.43;;
42754;SDS011;28407;51.830;5.684;2023-02-04T08:21:18;8.25;;;5.70;;
42754;SDS011;28407;51.830;5.684;2023-02-04T08:23:18;13.38;;;6.65;;
42754;SDS011;28407;51.830;5.684;2023-02-04T08:25:19;8.73;;;5.43;;
42754;SDS011;28407;51.830;5.684;2023-02-04T08:27:20;7.20;;;5.18;;
42754;SDS011;28407;51.830;5.684;2023-02-04T08:29:20;8.93;;;5.95;;
42754;SDS011;28407;51.830;5.684;2023-02-04T08:31:21;10.70;;;5.50;;
42754;SDS011;28407;51.830;5.684;2023-02-04T08:33:22;8.40;;;5.30;;
42754;SDS011;28407;51.830;5.684;2023-02-04T08:35:22;7.90;;;5.43;;
42754;SDS011;28407;51.830;5.684;2023-02-04T08:37:23;10.85;;;5.32;;
42754;SDS011;28407;51.830;5.684;2023-02-04T08:39:24;9.43;;;5.10;;
42754;SDS011;28407;51.830;5.684;2023-02-04T08:41:25;11.73;;;5.93;;
42754;SDS011;28407;51.830;5.684;2023-02-04T08:43:26;9.70;;;5.85;;
42754;SDS011;28407;51.830;5.684;2023-02-04T08:45:27;9.10;;;5.45;;
42754;SDS011;28407;51.830;5.684;2023-02-04T08:47:27;9.75;;;6.45;;
42754;SDS011;28407;51.830;5.684;2023-02-04T08:49:28;8.80;;;5.15;;
42754;SDS011;28407;51.830;5.684;2023-02-04T08:51:29;9.65;;;6.32;;
42754;SDS011;28407;51.830;5.684;2023-02-04T08:53:29;11.30;;;6.28;;
42754;SDS011;28407;51.830;5.684;2023-02-04T08:55:30;11.07;;;7.18;;
42754;SDS011;28407;51.830;5.684;2023-02-04T08:57:30;8.07;;;6.30;;
42754;SDS011;28407;51.830;5.684;2023-02-04T09:01:33;8.73;;;5.10;;
42754;SDS011;28407;51.830;5.684;2023-02-04T09:03:34;8.73;;;6.20;;
42754;SDS011;28407;51.830;5.684;2023-02-04T09:05:34;15.32;;;7.55;;
42754;SDS011;28407;51.830;5.684;2023-02-04T09:07:35;8.52;;;5.95;;
42754;SDS011;28407;51.830;5.684;2023-02-04T09:09:36;7.47;;;5.53;;
42754;SDS011;28407;51.830;5.684;2023-02-04T09:11:37;8.68;;;5.35;;
42754;SDS011;28407;51.830;5.684;2023-02-04T09:13:38;10.93;;;5.82;;
42754;SDS011;28407;51.830;5.684;2023-02-04T09:15:38;14.23;;;6.20;;
42754;SDS011;28407;51.830;5.684;2023-02-04T09:17:39;13.18;;;6.50;;
42754;SDS011;28407;51.830;5.684;2023-02-04T09:19:42;10.15;;;6.35;;
42754;SDS011;28407;51.830;5.684;2023-02-04T09:21:43;11.80;;;6.35;;
42754;SDS011;28407;51.830;5.684;2023-02-04T09:23:44;11.80;;;6.72;;
42754;SDS011;28407;51.830;5.684;2023-02-04T09:25:45;15.02;;;7.15;;
42754;SDS011;28407;51.830;5.684;2023-02-04T09:27:46;10.40;;;5.93;;
42754;SDS011;28407;51.830;5.684;2023-02-04T09:29:47;10.90;;;6.50;;
42754;SDS011;28407;51.830;5.684;2023-02-04T09:31:47;10.43;;;6.03;;
42754;SDS011;28407;51.830;5.684;2023-02-04T09:33:48;10.75;;;6.38;;
42754;SDS011;28407;51.830;5.684;2023-02-04T09:35:49;14.32;;;7.82;;
42754;SDS011;28407;51.830;5.684;2023-02-04T09:37:49;12.80;;;7.72;;
42754;SDS011;28407;51.830;5.684;2023-02-04T09:39:50;18.85;;;8.18;;
42754;SDS011;28407;51.830;5.684;2023-02-04T09:41:51;9.68;;;6.85;;
42754;SDS011;28407;51.830;5.684;2023-02-04T09:43:53;11.60;;;6.30;;
42754;SDS011;28407;51.830;5.684;2023-02-04T09:45:57;7.97;;;7.00;;
42754;SDS011;28407;51.830;5.684;2023-02-04T09:47:58;10.80;;;5.93;;
42754;SDS011;28407;51.830;5.684;2023-02-04T09:50:02;13.68;;;7.45;;
42754;SDS011;28407;51.830;5.684;2023-02-04T09:52:02;14.05;;;7.03;;
42754;SDS011;28407;51.830;5.684;2023-02-04T09:54:13;13.77;;;5.90;;
42754;SDS011;28407;51.830;5.684;2023-02-04T09:56:16;11.50;;;6.88;;
42754;SDS011;28407;51.830;5.684;2023-02-04T09:58:19;15.23;;;6.18;;
42754;SDS011;28407;51.830;5.684;2023-02-04T10:00:24;11.20;;;5.53;;
42754;SDS011;28407;51.830;5.684;2023-02-04T10:02:25;11.57;;;6.72;;
42754;SDS011;28407;51.830;5.684;2023-02-04T10:04:27;7.97;;;5.53;;
42754;SDS011;28407;51.830;5.684;2023-02-04T10:06:28;9.93;;;5.70;;
42754;SDS011;28407;51.830;5.684;2023-02-04T10:08:28;8.15;;;5.47;;
42754;SDS011;28407;51.830;5.684;2023-02-04T10:10:32;8.73;;;5.70;;
42754;SDS011;28407;51.830;5.684;2023-02-04T10:12:33;11.73;;;5.07;;
42754;SDS011;28407;51.830;5.684;2023-02-04T10:14:33;8.48;;;5.47;;
42754;SDS011;28407;51.830;5.684;2023-02-04T10:16:34;12.45;;;5.03;;
42754;SDS011;28407;51.830;5.684;2023-02-04T10:18:36;9.95;;;6.15;;
42754;SDS011;28407;51.830;5.684;2023-02-04T10:20:38;14.95;;;7.70;;
42754;SDS011;28407;51.830;5.684;2023-02-04T10:22:38;12.68;;;6.05;;
42754;SDS011;28407;51.830;5.684;2023-02-04T10:24:39;10.93;;;6.28;;
42754;SDS011;28407;51.830;5.684;2023-02-04T10:26:40;10.65;;;5.55;;
42754;SDS011;28407;51.830;5.684;2023-02-04T10:28:41;9.50;;;5.10;;
42754;SDS011;28407;51.830;5.684;2023-02-04T10:30:43;7.57;;;5.30;;
42754;SDS011;28407;51.830;5.684;2023-02-04T10:32:46;9.50;;;5.43;;
42754;SDS011;28407;51.830;5.684;2023-02-04T10:34:47;9.73;;;5.97;;
42754;SDS011;28407;51.830;5.684;2023-02-04T10:36:49;12.00;;;5.53;;
42754;SDS011;28407;51.830;5.684;2023-02-04T10:39:01;11.43;;;5.60;;
42754;SDS011;28407;51.830;5.684;2023-02-04T10:41:04;8.45;;;5.05;;
42754;SDS011;28407;51.830;5.684;2023-02-04T10:43:08;8.20;;;6.05;;
42754;SDS011;28407;51.830;5.684;2023-02-04T10:45:26;10.35;;;5.20;;
42754;SDS011;28407;51.830;5.684;2023-02-04T10:47:28;10.10;;;5.57;;
42754;SDS011;28407;51.830;5.684;2023-02-04T10:49:30;8.95;;;5.00;;
42754;SDS011;28407;51.830;5.684;2023-02-04T10:51:31;13.57;;;8.18;;
42754;SDS011;28407;51.830;5.684;2023-02-04T10:53:35;8.80;;;5.15;;
42754;SDS011;28407;51.830;5.684;2023-02-04T10:55:55;10.52;;;5.63;;
42754;SDS011;28407;51.830;5.684;2023-02-04T10:57:56;10.53;;;6.10;;
42754;SDS011;28407;51.830;5.684;2023-02-04T11:00:01;12.43;;;5.63;;
42754;SDS011;28407;51.830;5.684;2023-02-04T11:02:14;11.45;;;5.10;;
42754;SDS011;28407;51.830;5.684;2023-02-04T11:04:42;10.68;;;6.03;;
42754;SDS011;28407;51.830;5.684;2023-02-04T11:06:42;10.35;;;4.47;;
42754;SDS011;28407;51.830;5.684;2023-02-04T11:08:43;9.73;;;4.57;;
42754;SDS011;28407;51.830;5.684;2023-02-04T11:10:44;10.27;;;4.97;;
42754;SDS011;28407;51.830;5.684;2023-02-04T11:14:55;9.52;;;5.18;;
42754;SDS011;28407;51.830;5.684;2023-02-04T11:21:00;8.82;;;5.50;;
42754;SDS011;28407;51.830;5.684;2023-02-04T11:25:30;13.35;;;6.50;;
42754;SDS011;28407;51.830;5.684;2023-02-04T11:27:37;9.48;;;4.03;;
42754;SDS011;28407;51.830;5.684;2023-02-04T11:29:39;11.70;;;5.20;;
42754;SDS011;28407;51.830;5.684;2023-02-04T11:33:46;9.95;;;3.95;;
42754;SDS011;28407;51.830;5.684;2023-02-04T11:36:04;9.10;;;4.97;;
42754;SDS011;28407;51.830;5.684;2023-02-04T11:38:21;9.85;;;4.05;;
42754;SDS011;28407;51.830;5.684;2023-02-04T11:40:31;11.75;;;5.18;;
42754;SDS011;28407;51.830;5.684;2023-02-04T11:42:38;9.90;;;4.20;;
42754;SDS011;28407;51.830;5.684;2023-02-04T11:44:40;9.32;;;5.63;;
42754;SDS011;28407;51.830;5.684;2023-02-04T11:46:41;8.68;;;4.28;;
42754;SDS011;28407;51.830;5.684;2023-02-04T11:48:42;11.05;;;6.00;;
42754;SDS011;28407;51.830;5.684;2023-02-04T11:50:53;8.52;;;4.20;;
42754;SDS011;28407;51.830;5.684;2023-02-04T11:52:56;8.55;;;4.40;;
42754;SDS011;28407;51.830;5.684;2023-02-04T11:54:58;12.88;;;5.50;;
42754;SDS011;28407;51.830;5.684;2023-02-04T11:56:59;9.05;;;4.55;;
42754;SDS011;28407;51.830;5.684;2023-02-04T11:59:00;13.00;;;4.60;;
42754;SDS011;28407;51.830;5.684;2023-02-04T12:01:01;7.32;;;4.43;;
42754;SDS011;28407;51.830;5.684;2023-02-04T12:03:02;12.68;;;4.65;;
42754;SDS011;28407;51.830;5.684;2023-02-04T12:05:14;9.45;;;5.28;;
42754;SDS011;28407;51.830;5.684;2023-02-04T12:07:20;14.15;;;4.20;;
42754;SDS011;28407;51.830;5.684;2023-02-04T12:09:24;8.27;;;4.18;;
42754;SDS011;28407;51.830;5.684;2023-02-04T12:11:28;10.02;;;4.55;;
42754;SDS011;28407;51.830;5.684;2023-02-04T12:13:30;10.45;;;4.47;;
42754;SDS011;28407;51.830;5.684;2023-02-04T12:15:32;8.63;;;3.67;;
42754;SDS011;28407;51.830;5.684;2023-02-04T12:17:36;9.20;;;4.25;;
42754;SDS011;28407;51.830;5.684;2023-02-04T12:19:37;12.77;;;4.18;;
42754;SDS011;28407;51.830;5.684;2023-02-04T12:21:38;11.65;;;4.13;;
42754;SDS011;28407;51.830;5.684;2023-02-04T12:23:39;11.45;;;4.03;;
42754;SDS011;28407;51.830;5.684;2023-02-04T12:25:43;11.73;;;4.13;;
42754;SDS011;28407;51.830;5.684;2023-02-04T12:27:44;11.88;;;4.05;;
42754;SDS011;28407;51.830;5.684;2023-02-04T12:29:45;12.07;;;4.10;;
42754;SDS011;28407;51.830;5.684;2023-02-04T12:31:45;9.13;;;4.50;;
42754;SDS011;28407;51.830;5.684;2023-02-04T12:33:46;10.23;;;4.50;;